sensor_id;sensor_type;location;lat;lon;timestamp;temperature;humidity
610;DHT22;292;48.800;9.216;2024-03-17T00:01:14;12.50;78.60
610;DHT22;292;48.800;9.216;2024-03-17T00:03:40;12.50;78.60
610;DHT22;292;48.800;9.216;2024-03-17T00:06:09;12.50;78.70
610;DHT22;292;48.800;9.216;2024-03-17T00:08:37;12.40;78.80
610;DHT22;292;48.800;9.216;2024-03-17T00:11:04;12.40;78.80
610;DHT22;292;48.800;9.216;2024-03-17T00:13:30;12.40;79.00
610;DHT22;292;48.800;9.216;2024-03-17T00:15:57;12.40;79.10
610;DHT22;292;48.800;9.216;2024-03-17T00:18:23;12.40;79.30
610;DHT22;292;48.800;9.216;2024-03-17T00:20:52;12.30;79.30
610;DHT22;292;48.800;9.216;2024-03-17T00:23:19;12.30;79.10
610;DHT22;292;48.800;9.216;2024-03-17T00:25:49;12.20;79.30
610;DHT22;292;48.800;9.216;2024-03-17T00:28:16;12.20;79.30
610;DHT22;292;48.800;9.216;2024-03-17T00:30:43;12.20;79.10
610;DHT22;292;48.800;9.216;2024-03-17T00:33:09;12.20;79.10
610;DHT22;292;48.800;9.216;2024-03-17T00:35:36;12.20;79.30
610;DHT22;292;48.800;9.216;2024-03-17T00:38:03;12.20;79.10
610;DHT22;292;48.800;9.216;2024-03-17T00:40:35;12.20;79.30
610;DHT22;292;48.800;9.216;2024-03-17T00:43:03;12.20;79.30
610;DHT22;292;48.800;9.216;2024-03-17T00:45:30;12.20;79.40
610;DHT22;292;48.800;9.216;2024-03-17T00:47:56;12.20;79.40
610;DHT22;292;48.800;9.216;2024-03-17T00:50:23;12.20;79.70
610;DHT22;292;48.800;9.216;2024-03-17T00:52:49;12.20;79.70
610;DHT22;292;48.800;9.216;2024-03-17T00:55:16;12.20;79.90
610;DHT22;292;48.800;9.216;2024-03-17T00:57:42;12.20;79.90
610;DHT22;292;48.800;9.216;2024-03-17T01:00:12;12.20;79.90
610;DHT22;292;48.800;9.216;2024-03-17T01:02:38;12.10;80.10
610;DHT22;292;48.800;9.216;2024-03-17T01:05:06;12.10;80.10
610;DHT22;292;48.800;9.216;2024-03-17T01:07:33;12.20;80.10
610;DHT22;292;48.800;9.216;2024-03-17T01:10:00;12.10;80.00
610;DHT22;292;48.800;9.216;2024-03-17T01:12:26;12.10;80.00
610;DHT22;292;48.800;9.216;2024-03-17T01:14:53;12.00;80.00
610;DHT22;292;48.800;9.216;2024-03-17T01:17:21;12.00;80.00
610;DHT22;292;48.800;9.216;2024-03-17T01:19:48;12.00;79.90
610;DHT22;292;48.800;9.216;2024-03-17T01:22:13;11.90;79.90
610;DHT22;292;48.800;9.216;2024-03-17T01:24:40;11.90;79.90
610;DHT22;292;48.800;9.216;2024-03-17T01:27:11;11.80;79.90
610;DHT22;292;48.800;9.216;2024-03-17T01:29:41;11.80;79.90
610;DHT22;292;48.800;9.216;2024-03-17T01:32:07;11.80;80.00
610;DHT22;292;48.800;9.216;2024-03-17T01:34:36;11.80;80.00
610;DHT22;292;48.800;9.216;2024-03-17T01:37:01;11.80;80.10
610;DHT22;292;48.800;9.216;2024-03-17T01:39:29;11.80;80.30
610;DHT22;292;48.800;9.216;2024-03-17T01:41:55;11.80;80.40
610;DHT22;292;48.800;9.216;2024-03-17T01:44:23;11.80;80.60
610;DHT22;292;48.800;9.216;2024-03-17T01:46:50;11.80;80.60
610;DHT22;292;48.800;9.216;2024-03-17T01:49:17;11.80;80.70
610;DHT22;292;48.800;9.216;2024-03-17T01:51:45;11.80;80.70
610;DHT22;292;48.800;9.216;2024-03-17T01:54:13;11.80;80.70
610;DHT22;292;48.800;9.216;2024-03-17T01:56:40;11.80;80.70
610;DHT22;292;48.800;9.216;2024-03-17T01:59:08;11.80;80.70
610;DHT22;292;48.800;9.216;2024-03-17T02:01:35;11.70;80.70
610;DHT22;292;48.800;9.216;2024-03-17T02:04:02;11.70;80.70
610;DHT22;292;48.800;9.216;2024-03-17T02:06:28;11.70;80.90
610;DHT22;292;48.800;9.216;2024-03-17T02:08:57;11.70;80.90
610;DHT22;292;48.800;9.216;2024-03-17T02:11:25;11.60;80.90
610;DHT22;292;48.800;9.216;2024-03-17T02:13:53;11.60;80.90
610;DHT22;292;48.800;9.216;2024-03-17T02:16:19;11.60;80.70
610;DHT22;292;48.800;9.216;2024-03-17T02:18:46;11.60;80.70
610;DHT22;292;48.800;9.216;2024-03-17T02:21:12;11.60;80.70
610;DHT22;292;48.800;9.216;2024-03-17T02:23:41;11.60;80.70
610;DHT22;292;48.800;9.216;2024-03-17T02:26:07;11.60;80.70
610;DHT22;292;48.800;9.216;2024-03-17T02:28:39;11.60;80.70
610;DHT22;292;48.800;9.216;2024-03-17T02:31:06;11.60;80.70
610;DHT22;292;48.800;9.216;2024-03-17T02:33:34;11.60;80.70
610;DHT22;292;48.800;9.216;2024-03-17T02:36:00;11.60;80.70
610;DHT22;292;48.800;9.216;2024-03-17T02:38:29;11.50;80.60
610;DHT22;292;48.800;9.216;2024-03-17T02:41:15;11.50;80.60
610;DHT22;292;48.800;9.216;2024-03-17T02:43:42;11.50;80.60
610;DHT22;292;48.800;9.216;2024-03-17T02:46:11;11.50;80.60
610;DHT22;292;48.800;9.216;2024-03-17T02:48:38;11.40;80.60
610;DHT22;292;48.800;9.216;2024-03-17T02:51:10;11.40;80.40
610;DHT22;292;48.800;9.216;2024-03-17T02:53:38;11.30;80.30
610;DHT22;292;48.800;9.216;2024-03-17T02:56:05;11.30;80.30
610;DHT22;292;48.800;9.216;2024-03-17T02:58:35;11.20;80.10
610;DHT22;292;48.800;9.216;2024-03-17T03:01:03;11.10;80.00
610;DHT22;292;48.800;9.216;2024-03-17T03:03:30;11.10;80.00
610;DHT22;292;48.800;9.216;2024-03-17T03:05:57;11.00;79.90
610;DHT22;292;48.800;9.216;2024-03-17T03:08:24;10.90;80.00
610;DHT22;292;48.800;9.216;2024-03-17T03:10:51;10.90;80.00
610;DHT22;292;48.800;9.216;2024-03-17T03:13:18;10.80;79.90
610;DHT22;292;48.800;9.216;2024-03-17T03:15:48;10.80;79.90
610;DHT22;292;48.800;9.216;2024-03-17T03:18:15;10.70;79.70
610;DHT22;292;48.800;9.216;2024-03-17T03:20:42;10.60;80.00
610;DHT22;292;48.800;9.216;2024-03-17T03:23:09;10.60;80.10
610;DHT22;292;48.800;9.216;2024-03-17T03:25:37;10.60;80.10
610;DHT22;292;48.800;9.216;2024-03-17T03:28:04;10.50;80.10
610;DHT22;292;48.800;9.216;2024-03-17T03:30:35;10.50;80.40
610;DHT22;292;48.800;9.216;2024-03-17T03:33:04;10.40;80.40
610;DHT22;292;48.800;9.216;2024-03-17T03:35:31;10.40;80.60
610;DHT22;292;48.800;9.216;2024-03-17T03:37:59;10.30;80.60
610;DHT22;292;48.800;9.216;2024-03-17T03:40:26;10.30;80.60
610;DHT22;292;48.800;9.216;2024-03-17T03:42:53;10.30;80.60
610;DHT22;292;48.800;9.216;2024-03-17T03:45:22;10.20;80.60
610;DHT22;292;48.800;9.216;2024-03-17T03:47:50;10.20;80.70
610;DHT22;292;48.800;9.216;2024-03-17T03:50:20;10.10;80.70
610;DHT22;292;48.800;9.216;2024-03-17T03:52:47;10.00;80.90
610;DHT22;292;48.800;9.216;2024-03-17T03:55:15;10.00;81.00
610;DHT22;292;48.800;9.216;2024-03-17T03:57:42;9.90;81.20
610;DHT22;292;48.800;9.216;2024-03-17T04:00:12;9.90;81.20
610;DHT22;292;48.800;9.216;2024-03-17T04:02:40;9.90;81.20
610;DHT22;292;48.800;9.216;2024-03-17T04:05:07;9.90;81.20
610;DHT22;292;48.800;9.216;2024-03-17T04:07:36;9.80;81.20
610;DHT22;292;48.800;9.216;2024-03-17T04:10:03;9.70;81.30
610;DHT22;292;48.800;9.216;2024-03-17T04:12:31;9.70;81.40
610;DHT22;292;48.800;9.216;2024-03-17T04:14:58;9.70;81.60
610;DHT22;292;48.800;9.216;2024-03-17T04:17:26;9.70;81.60
610;DHT22;292;48.800;9.216;2024-03-17T04:19:53;9.60;81.70
610;DHT22;292;48.800;9.216;2024-03-17T04:22:21;9.60;81.90
610;DHT22;292;48.800;9.216;2024-03-17T04:24:51;9.60;81.70
610;DHT22;292;48.800;9.216;2024-03-17T04:27:19;9.60;81.90
610;DHT22;292;48.800;9.216;2024-03-17T04:29:47;9.60;82.00
610;DHT22;292;48.800;9.216;2024-03-17T04:32:14;9.60;82.00
610;DHT22;292;48.800;9.216;2024-03-17T04:34:41;9.60;82.00
610;DHT22;292;48.800;9.216;2024-03-17T04:37:10;9.60;82.10
610;DHT22;292;48.800;9.216;2024-03-17T04:39:38;9.60;82.10
610;DHT22;292;48.800;9.216;2024-03-17T04:42:06;9.60;82.20
610;DHT22;292;48.800;9.216;2024-03-17T04:44:33;9.60;82.20
610;DHT22;292;48.800;9.216;2024-03-17T04:47:00;9.60;82.20
610;DHT22;292;48.800;9.216;2024-03-17T04:49:28;9.60;82.20
610;DHT22;292;48.800;9.216;2024-03-17T04:51:55;9.60;82.20
610;DHT22;292;48.800;9.216;2024-03-17T04:54:22;9.50;82.40
610;DHT22;292;48.800;9.216;2024-03-17T04:56:48;9.50;82.40
610;DHT22;292;48.800;9.216;2024-03-17T04:59:17;9.50;82.40
610;DHT22;292;48.800;9.216;2024-03-17T05:01:44;9.50;82.40
610;DHT22;292;48.800;9.216;2024-03-17T05:04:11;9.50;82.20
610;DHT22;292;48.800;9.216;2024-03-17T05:06:38;9.40;82.20
610;DHT22;292;48.800;9.216;2024-03-17T05:09:07;9.40;82.50
610;DHT22;292;48.800;9.216;2024-03-17T05:11:34;9.40;82.50
610;DHT22;292;48.800;9.216;2024-03-17T05:14:03;9.40;82.50
610;DHT22;292;48.800;9.216;2024-03-17T05:16:31;9.30;82.50
610;DHT22;292;48.800;9.216;2024-03-17T05:18:58;9.30;82.60
610;DHT22;292;48.800;9.216;2024-03-17T05:21:25;9.30;82.50
610;DHT22;292;48.800;9.216;2024-03-17T05:23:55;9.30;82.50
610;DHT22;292;48.800;9.216;2024-03-17T05:26:23;9.20;82.50
610;DHT22;292;48.800;9.216;2024-03-17T05:28:51;9.20;82.60
610;DHT22;292;48.800;9.216;2024-03-17T05:31:19;9.10;82.50
610;DHT22;292;48.800;9.216;2024-03-17T05:33:49;9.00;82.60
610;DHT22;292;48.800;9.216;2024-03-17T05:36:17;9.00;82.80
610;DHT22;292;48.800;9.216;2024-03-17T05:38:45;9.00;83.10
610;DHT22;292;48.800;9.216;2024-03-17T05:41:13;8.90;83.10
610;DHT22;292;48.800;9.216;2024-03-17T05:43:40;8.90;83.40
610;DHT22;292;48.800;9.216;2024-03-17T05:46:09;8.90;83.40
610;DHT22;292;48.800;9.216;2024-03-17T05:48:37;8.80;83.50
610;DHT22;292;48.800;9.216;2024-03-17T05:51:06;8.80;83.60
610;DHT22;292;48.800;9.216;2024-03-17T05:53:34;8.80;83.60
610;DHT22;292;48.800;9.216;2024-03-17T05:56:02;8.80;83.80
610;DHT22;292;48.800;9.216;2024-03-17T05:58:30;8.80;83.80
610;DHT22;292;48.800;9.216;2024-03-17T06:00:57;8.80;83.90
610;DHT22;292;48.800;9.216;2024-03-17T06:03:24;8.80;83.90
610;DHT22;292;48.800;9.216;2024-03-17T06:05:51;8.80;84.10
610;DHT22;292;48.800;9.216;2024-03-17T06:08:20;8.80;84.10
610;DHT22;292;48.800;9.216;2024-03-17T06:10:49;8.80;84.20
610;DHT22;292;48.800;9.216;2024-03-17T06:13:16;8.90;84.20
610;DHT22;292;48.800;9.216;2024-03-17T06:15:44;8.90;84.10
610;DHT22;292;48.800;9.216;2024-03-17T06:18:13;8.90;84.10
610;DHT22;292;48.800;9.216;2024-03-17T06:20:40;8.90;84.10
610;DHT22;292;48.800;9.216;2024-03-17T06:23:09;8.90;84.10
610;DHT22;292;48.800;9.216;2024-03-17T06:25:40;8.90;84.10
610;DHT22;292;48.800;9.216;2024-03-17T06:28:07;8.90;84.10
610;DHT22;292;48.800;9.216;2024-03-17T06:30:35;8.90;84.10
610;DHT22;292;48.800;9.216;2024-03-17T06:33:03;8.80;84.10
610;DHT22;292;48.800;9.216;2024-03-17T06:35:31;8.90;84.20
610;DHT22;292;48.800;9.216;2024-03-17T06:37:59;8.90;84.20
610;DHT22;292;48.800;9.216;2024-03-17T06:40:27;8.90;84.40
610;DHT22;292;48.800;9.216;2024-03-17T06:42:55;8.90;84.40
610;DHT22;292;48.800;9.216;2024-03-17T06:45:22;8.90;84.40
610;DHT22;292;48.800;9.216;2024-03-17T06:47:49;9.00;84.50
610;DHT22;292;48.800;9.216;2024-03-17T06:50:17;9.00;84.40
610;DHT22;292;48.800;9.216;2024-03-17T06:52:43;9.10;84.20
610;DHT22;292;48.800;9.216;2024-03-17T06:55:11;9.10;84.40
610;DHT22;292;48.800;9.216;2024-03-17T06:57:40;9.20;84.40
610;DHT22;292;48.800;9.216;2024-03-17T07:00:11;9.20;84.40
610;DHT22;292;48.800;9.216;2024-03-17T07:02:40;9.30;84.40
610;DHT22;292;48.800;9.216;2024-03-17T07:05:12;9.30;84.40
610;DHT22;292;48.800;9.216;2024-03-17T07:07:41;9.40;84.50
610;DHT22;292;48.800;9.216;2024-03-17T07:10:08;9.50;84.50
610;DHT22;292;48.800;9.216;2024-03-17T07:12:37;9.60;84.70
610;DHT22;292;48.800;9.216;2024-03-17T07:15:04;9.70;84.50
610;DHT22;292;48.800;9.216;2024-03-17T07:17:33;9.80;84.50
610;DHT22;292;48.800;9.216;2024-03-17T07:20:00;9.90;84.50
610;DHT22;292;48.800;9.216;2024-03-17T07:22:29;9.90;84.40
610;DHT22;292;48.800;9.216;2024-03-17T07:24:56;10.00;84.50
610;DHT22;292;48.800;9.216;2024-03-17T07:27:26;10.00;84.50
610;DHT22;292;48.800;9.216;2024-03-17T07:29:53;10.10;84.20
610;DHT22;292;48.800;9.216;2024-03-17T07:32:20;10.20;83.80
610;DHT22;292;48.800;9.216;2024-03-17T07:34:49;10.20;83.80
610;DHT22;292;48.800;9.216;2024-03-17T07:37:17;10.30;83.60
610;DHT22;292;48.800;9.216;2024-03-17T07:39:44;10.40;83.50
610;DHT22;292;48.800;9.216;2024-03-17T07:42:13;10.40;83.50
610;DHT22;292;48.800;9.216;2024-03-17T07:44:43;10.50;83.20
610;DHT22;292;48.800;9.216;2024-03-17T07:47:10;10.50;83.10
610;DHT22;292;48.800;9.216;2024-03-17T07:49:37;10.50;83.10
610;DHT22;292;48.800;9.216;2024-03-17T07:52:06;10.60;82.90
610;DHT22;292;48.800;9.216;2024-03-17T07:54:33;10.60;82.90
610;DHT22;292;48.800;9.216;2024-03-17T07:57:03;10.70;82.80
610;DHT22;292;48.800;9.216;2024-03-17T07:59:30;10.70;82.60
610;DHT22;292;48.800;9.216;2024-03-17T08:01:56;10.80;82.40
610;DHT22;292;48.800;9.216;2024-03-17T08:04:24;10.90;82.20
610;DHT22;292;48.800;9.216;2024-03-17T08:06:51;11.00;82.10
610;DHT22;292;48.800;9.216;2024-03-17T08:09:18;11.10;82.00
610;DHT22;292;48.800;9.216;2024-03-17T08:11:45;11.20;81.90
610;DHT22;292;48.800;9.216;2024-03-17T08:14:13;11.30;81.60
610;DHT22;292;48.800;9.216;2024-03-17T08:16:41;11.40;81.20
610;DHT22;292;48.800;9.216;2024-03-17T08:19:08;11.40;81.00
610;DHT22;292;48.800;9.216;2024-03-17T08:21:35;11.40;80.90
610;DHT22;292;48.800;9.216;2024-03-17T08:24:02;11.40;80.60
610;DHT22;292;48.800;9.216;2024-03-17T08:26:31;11.50;80.60
610;DHT22;292;48.800;9.216;2024-03-17T08:28:58;11.60;80.30
610;DHT22;292;48.800;9.216;2024-03-17T08:31:25;11.60;80.00
610;DHT22;292;48.800;9.216;2024-03-17T08:33:52;11.70;79.60
610;DHT22;292;48.800;9.216;2024-03-17T08:36:19;11.70;79.60
610;DHT22;292;48.800;9.216;2024-03-17T08:38:46;11.70;79.40
610;DHT22;292;48.800;9.216;2024-03-17T08:41:14;11.70;79.10
610;DHT22;292;48.800;9.216;2024-03-17T08:43:43;11.80;79.10
610;DHT22;292;48.800;9.216;2024-03-17T08:46:10;11.80;78.80
610;DHT22;292;48.800;9.216;2024-03-17T08:48:40;11.90;78.70
610;DHT22;292;48.800;9.216;2024-03-17T08:51:07;12.00;78.60
610;DHT22;292;48.800;9.216;2024-03-17T08:53:35;12.00;78.40
610;DHT22;292;48.800;9.216;2024-03-17T08:56:04;12.10;78.30
610;DHT22;292;48.800;9.216;2024-03-17T08:58:32;12.20;77.80
610;DHT22;292;48.800;9.216;2024-03-17T09:01:06;12.20;77.70
610;DHT22;292;48.800;9.216;2024-03-17T09:03:34;12.30;77.50
610;DHT22;292;48.800;9.216;2024-03-17T09:06:03;12.40;77.10
610;DHT22;292;48.800;9.216;2024-03-17T09:08:30;12.40;77.00
610;DHT22;292;48.800;9.216;2024-03-17T09:10:59;12.50;77.00
610;DHT22;292;48.800;9.216;2024-03-17T09:13:26;12.60;76.40
610;DHT22;292;48.800;9.216;2024-03-17T09:15:53;12.70;76.10
610;DHT22;292;48.800;9.216;2024-03-17T09:18:24;12.80;76.00
610;DHT22;292;48.800;9.216;2024-03-17T09:20:57;12.90;75.80
610;DHT22;292;48.800;9.216;2024-03-17T09:23:24;13.00;75.50
610;DHT22;292;48.800;9.216;2024-03-17T09:25:58;13.00;75.20
610;DHT22;292;48.800;9.216;2024-03-17T09:28:26;13.10;75.20
610;DHT22;292;48.800;9.216;2024-03-17T09:30:53;13.20;75.00
610;DHT22;292;48.800;9.216;2024-03-17T09:33:20;13.30;74.50
610;DHT22;292;48.800;9.216;2024-03-17T09:35:56;13.30;74.40
610;DHT22;292;48.800;9.216;2024-03-17T09:38:23;13.50;74.10
610;DHT22;292;48.800;9.216;2024-03-17T09:40:50;13.50;73.70
610;DHT22;292;48.800;9.216;2024-03-17T09:43:20;13.70;72.90
610;DHT22;292;48.800;9.216;2024-03-17T09:45:47;13.70;72.20
610;DHT22;292;48.800;9.216;2024-03-17T09:48:16;13.70;71.90
610;DHT22;292;48.800;9.216;2024-03-17T09:50:50;13.80;71.50
610;DHT22;292;48.800;9.216;2024-03-17T09:53:23;13.90;71.10
610;DHT22;292;48.800;9.216;2024-03-17T09:55:51;13.90;70.50
610;DHT22;292;48.800;9.216;2024-03-17T09:58:19;13.90;70.20
610;DHT22;292;48.800;9.216;2024-03-17T10:00:46;14.00;69.50
610;DHT22;292;48.800;9.216;2024-03-17T10:03:39;14.00;69.20
610;DHT22;292;48.800;9.216;2024-03-17T10:06:07;14.10;68.70
610;DHT22;292;48.800;9.216;2024-03-17T10:08:40;14.10;68.50
610;DHT22;292;48.800;9.216;2024-03-17T10:11:07;14.20;67.70
610;DHT22;292;48.800;9.216;2024-03-17T10:13:35;14.30;67.20
610;DHT22;292;48.800;9.216;2024-03-17T10:16:02;14.30;66.90
610;DHT22;292;48.800;9.216;2024-03-17T10:18:30;14.40;66.70
610;DHT22;292;48.800;9.216;2024-03-17T10:20:57;14.40;66.90
610;DHT22;292;48.800;9.216;2024-03-17T10:23:26;14.50;67.30
610;DHT22;292;48.800;9.216;2024-03-17T10:25:55;14.50;67.00
610;DHT22;292;48.800;9.216;2024-03-17T10:28:22;14.60;66.60
610;DHT22;292;48.800;9.216;2024-03-17T10:30:59;14.60;66.30
610;DHT22;292;48.800;9.216;2024-03-17T10:33:27;14.70;66.00
610;DHT22;292;48.800;9.216;2024-03-17T10:36:01;14.70;65.70
610;DHT22;292;48.800;9.216;2024-03-17T10:38:30;14.70;65.10
610;DHT22;292;48.800;9.216;2024-03-17T10:41:02;14.70;65.00
610;DHT22;292;48.800;9.216;2024-03-17T10:43:30;14.80;64.90
610;DHT22;292;48.800;9.216;2024-03-17T10:45:59;14.80;65.00
610;DHT22;292;48.800;9.216;2024-03-17T10:48:31;14.90;64.90
610;DHT22;292;48.800;9.216;2024-03-17T10:50:59;14.90;64.90
610;DHT22;292;48.800;9.216;2024-03-17T10:53:29;15.00;64.90
610;DHT22;292;48.800;9.216;2024-03-17T10:56:05;15.10;64.90
610;DHT22;292;48.800;9.216;2024-03-17T10:58:35;15.10;64.60
610;DHT22;292;48.800;9.216;2024-03-17T11:01:03;15.20;64.40
610;DHT22;292;48.800;9.216;2024-03-17T11:03:32;15.30;64.40
610;DHT22;292;48.800;9.216;2024-03-17T11:06:00;15.30;64.30
610;DHT22;292;48.800;9.216;2024-03-17T11:08:30;15.40;64.30
610;DHT22;292;48.800;9.216;2024-03-17T11:10:58;15.50;64.10
610;DHT22;292;48.800;9.216;2024-03-17T11:13:28;15.60;64.00
610;DHT22;292;48.800;9.216;2024-03-17T11:15:56;15.70;63.60
610;DHT22;292;48.800;9.216;2024-03-17T11:18:37;15.80;63.10
610;DHT22;292;48.800;9.216;2024-03-17T11:21:05;15.80;62.30
610;DHT22;292;48.800;9.216;2024-03-17T11:23:41;15.90;62.10
610;DHT22;292;48.800;9.216;2024-03-17T11:26:09;16.00;62.00
610;DHT22;292;48.800;9.216;2024-03-17T11:28:52;16.10;62.00
610;DHT22;292;48.800;9.216;2024-03-17T11:31:37;16.20;61.70
610;DHT22;292;48.800;9.216;2024-03-17T11:36:52;16.20;61.10
610;DHT22;292;48.800;9.216;2024-03-17T11:39:19;16.20;60.80
610;DHT22;292;48.800;9.216;2024-03-17T11:41:47;16.30;60.80
610;DHT22;292;48.800;9.216;2024-03-17T11:44:31;16.30;60.70
610;DHT22;292;48.800;9.216;2024-03-17T11:46:59;16.30;60.20
610;DHT22;292;48.800;9.216;2024-03-17T11:49:28;16.40;60.10
610;DHT22;292;48.800;9.216;2024-03-17T11:51:58;16.40;59.60
610;DHT22;292;48.800;9.216;2024-03-17T11:54:25;16.30;58.90
610;DHT22;292;48.800;9.216;2024-03-17T11:56:54;16.30;58.60
610;DHT22;292;48.800;9.216;2024-03-17T11:59:21;16.30;58.60
610;DHT22;292;48.800;9.216;2024-03-17T12:01:50;16.40;58.60
610;DHT22;292;48.800;9.216;2024-03-17T12:04:17;16.40;58.50
610;DHT22;292;48.800;9.216;2024-03-17T12:06:46;16.50;58.40
610;DHT22;292;48.800;9.216;2024-03-17T12:09:18;16.40;58.10
610;DHT22;292;48.800;9.216;2024-03-17T12:11:48;16.40;58.00
610;DHT22;292;48.800;9.216;2024-03-17T12:14:16;16.40;57.70
610;DHT22;292;48.800;9.216;2024-03-17T12:16:50;16.40;57.40
610;DHT22;292;48.800;9.216;2024-03-17T12:19:18;16.30;57.30
610;DHT22;292;48.800;9.216;2024-03-17T12:21:47;16.30;57.20
610;DHT22;292;48.800;9.216;2024-03-17T12:24:16;16.30;57.20
610;DHT22;292;48.800;9.216;2024-03-17T12:26:44;16.30;57.20
610;DHT22;292;48.800;9.216;2024-03-17T12:29:39;16.30;57.00
610;DHT22;292;48.800;9.216;2024-03-17T12:32:13;16.30;56.90
610;DHT22;292;48.800;9.216;2024-03-17T12:34:40;16.40;56.90
610;DHT22;292;48.800;9.216;2024-03-17T12:37:08;16.40;56.80
610;DHT22;292;48.800;9.216;2024-03-17T12:39:38;16.40;56.50
610;DHT22;292;48.800;9.216;2024-03-17T12:42:08;16.40;56.40
610;DHT22;292;48.800;9.216;2024-03-17T12:44:36;16.50;56.10
610;DHT22;292;48.800;9.216;2024-03-17T12:47:13;16.50;56.10
610;DHT22;292;48.800;9.216;2024-03-17T12:49:45;16.50;55.80
610;DHT22;292;48.800;9.216;2024-03-17T12:52:18;16.50;55.80
610;DHT22;292;48.800;9.216;2024-03-17T12:54:44;16.50;55.70
610;DHT22;292;48.800;9.216;2024-03-17T12:57:20;16.50;55.60
610;DHT22;292;48.800;9.216;2024-03-17T13:00:17;16.50;55.40
610;DHT22;292;48.800;9.216;2024-03-17T13:03:02;16.50;55.40
610;DHT22;292;48.800;9.216;2024-03-17T13:05:34;16.50;55.60
610;DHT22;292;48.800;9.216;2024-03-17T13:08:01;16.50;55.30
610;DHT22;292;48.800;9.216;2024-03-17T13:10:29;16.50;55.20
610;DHT22;292;48.800;9.216;2024-03-17T13:13:01;16.50;55.20
610;DHT22;292;48.800;9.216;2024-03-17T13:15:29;16.40;54.90
610;DHT22;292;48.800;9.216;2024-03-17T13:17:57;16.40;54.90
610;DHT22;292;48.800;9.216;2024-03-17T13:20:26;16.40;54.90
610;DHT22;292;48.800;9.216;2024-03-17T13:22:53;16.40;54.80
610;DHT22;292;48.800;9.216;2024-03-17T13:25:21;16.40;54.80
610;DHT22;292;48.800;9.216;2024-03-17T13:27:52;16.40;54.60
610;DHT22;292;48.800;9.216;2024-03-17T13:30:20;16.50;54.80
610;DHT22;292;48.800;9.216;2024-03-17T13:32:48;16.50;54.80
610;DHT22;292;48.800;9.216;2024-03-17T13:35:23;16.50;54.80
610;DHT22;292;48.800;9.216;2024-03-17T13:37:54;16.50;54.50
610;DHT22;292;48.800;9.216;2024-03-17T13:40:22;16.50;54.50
610;DHT22;292;48.800;9.216;2024-03-17T13:42:50;16.50;54.60
610;DHT22;292;48.800;9.216;2024-03-17T13:45:19;16.60;54.60
610;DHT22;292;48.800;9.216;2024-03-17T13:47:51;16.60;54.50
610;DHT22;292;48.800;9.216;2024-03-17T13:50:19;16.60;54.40
610;DHT22;292;48.800;9.216;2024-03-17T13:52:46;16.60;54.40
610;DHT22;292;48.800;9.216;2024-03-17T13:55:18;16.60;54.40
610;DHT22;292;48.800;9.216;2024-03-17T13:57:49;16.70;54.20
610;DHT22;292;48.800;9.216;2024-03-17T14:00:17;16.70;54.10
610;DHT22;292;48.800;9.216;2024-03-17T14:02:45;16.70;53.80
610;DHT22;292;48.800;9.216;2024-03-17T14:05:14;16.70;53.70
610;DHT22;292;48.800;9.216;2024-03-17T14:07:42;16.70;53.70
610;DHT22;292;48.800;9.216;2024-03-17T14:10:11;16.70;53.60
610;DHT22;292;48.800;9.216;2024-03-17T14:12:40;16.80;53.30
610;DHT22;292;48.800;9.216;2024-03-17T14:15:09;16.80;52.90
610;DHT22;292;48.800;9.216;2024-03-17T14:17:37;16.80;52.90
610;DHT22;292;48.800;9.216;2024-03-17T14:20:06;16.80;52.80
610;DHT22;292;48.800;9.216;2024-03-17T14:22:35;16.90;52.80
610;DHT22;292;48.800;9.216;2024-03-17T14:25:03;16.90;52.60
610;DHT22;292;48.800;9.216;2024-03-17T14:27:31;16.90;52.60
610;DHT22;292;48.800;9.216;2024-03-17T14:30:00;17.00;52.50
610;DHT22;292;48.800;9.216;2024-03-17T14:32:29;17.00;52.40
610;DHT22;292;48.800;9.216;2024-03-17T14:34:57;17.00;52.40
610;DHT22;292;48.800;9.216;2024-03-17T14:37:24;17.00;52.40
610;DHT22;292;48.800;9.216;2024-03-17T14:39:51;17.00;52.40
610;DHT22;292;48.800;9.216;2024-03-17T14:42:20;17.10;52.40
610;DHT22;292;48.800;9.216;2024-03-17T14:44:47;17.10;52.20
610;DHT22;292;48.800;9.216;2024-03-17T14:47:17;17.10;52.20
610;DHT22;292;48.800;9.216;2024-03-17T14:49:45;17.20;52.10
610;DHT22;292;48.800;9.216;2024-03-17T14:52:12;17.20;52.10
610;DHT22;292;48.800;9.216;2024-03-17T14:54:39;17.20;52.00
610;DHT22;292;48.800;9.216;2024-03-17T14:57:08;17.20;52.00
610;DHT22;292;48.800;9.216;2024-03-17T14:59:36;17.20;52.00
610;DHT22;292;48.800;9.216;2024-03-17T15:02:04;17.30;51.80
610;DHT22;292;48.800;9.216;2024-03-17T15:04:33;17.30;51.80
610;DHT22;292;48.800;9.216;2024-03-17T15:07:00;17.40;51.70
610;DHT22;292;48.800;9.216;2024-03-17T15:09:27;17.40;51.70
610;DHT22;292;48.800;9.216;2024-03-17T15:11:54;17.50;51.60
610;DHT22;292;48.800;9.216;2024-03-17T15:14:21;17.50;51.40
610;DHT22;292;48.800;9.216;2024-03-17T15:16:49;17.60;51.30
610;DHT22;292;48.800;9.216;2024-03-17T15:19:16;17.60;51.20
610;DHT22;292;48.800;9.216;2024-03-17T15:21:45;17.60;51.20
610;DHT22;292;48.800;9.216;2024-03-17T15:24:12;17.70;51.00
610;DHT22;292;48.800;9.216;2024-03-17T15:26:39;17.70;50.90
610;DHT22;292;48.800;9.216;2024-03-17T15:29:06;17.70;50.60
610;DHT22;292;48.800;9.216;2024-03-17T15:31:33;17.70;50.50
610;DHT22;292;48.800;9.216;2024-03-17T15:34:01;17.70;50.50
610;DHT22;292;48.800;9.216;2024-03-17T15:36:28;17.70;50.40
610;DHT22;292;48.800;9.216;2024-03-17T15:38:57;17.70;50.40
610;DHT22;292;48.800;9.216;2024-03-17T15:41:25;17.70;50.20
610;DHT22;292;48.800;9.216;2024-03-17T15:43:52;17.70;50.40
610;DHT22;292;48.800;9.216;2024-03-17T15:46:20;17.60;50.40
610;DHT22;292;48.800;9.216;2024-03-17T15:48:48;17.60;50.50
610;DHT22;292;48.800;9.216;2024-03-17T15:51:16;17.50;50.50
610;DHT22;292;48.800;9.216;2024-03-17T15:53:44;17.50;50.60
610;DHT22;292;48.800;9.216;2024-03-17T15:56:12;17.40;50.60
610;DHT22;292;48.800;9.216;2024-03-17T15:58:39;17.40;50.80
610;DHT22;292;48.800;9.216;2024-03-17T16:01:07;17.40;50.80
610;DHT22;292;48.800;9.216;2024-03-17T16:03:37;17.30;50.80
610;DHT22;292;48.800;9.216;2024-03-17T16:06:09;17.20;51.00
610;DHT22;292;48.800;9.216;2024-03-17T16:08:38;17.20;51.20
610;DHT22;292;48.800;9.216;2024-03-17T16:11:09;17.20;51.20
610;DHT22;292;48.800;9.216;2024-03-17T16:13:41;17.10;51.30
610;DHT22;292;48.800;9.216;2024-03-17T16:16:10;17.10;51.30
610;DHT22;292;48.800;9.216;2024-03-17T16:18:39;17.10;51.40
610;DHT22;292;48.800;9.216;2024-03-17T16:21:08;17.10;51.40
610;DHT22;292;48.800;9.216;2024-03-17T16:23:40;17.00;51.60
610;DHT22;292;48.800;9.216;2024-03-17T16:26:08;17.00;51.60
610;DHT22;292;48.800;9.216;2024-03-17T16:28:35;17.00;51.60
610;DHT22;292;48.800;9.216;2024-03-17T16:31:05;16.90;51.70
610;DHT22;292;48.800;9.216;2024-03-17T16:33:33;16.90;51.80
610;DHT22;292;48.800;9.216;2024-03-17T16:36:01;16.80;51.80
610;DHT22;292;48.800;9.216;2024-03-17T16:38:30;16.80;52.00
610;DHT22;292;48.800;9.216;2024-03-17T16:40:58;16.70;52.10
610;DHT22;292;48.800;9.216;2024-03-17T16:43:40;16.60;52.20
610;DHT22;292;48.800;9.216;2024-03-17T16:46:18;16.60;52.40
610;DHT22;292;48.800;9.216;2024-03-17T16:48:47;16.50;52.50
610;DHT22;292;48.800;9.216;2024-03-17T16:51:14;16.50;52.60